sensor_id;sensor_type;location;lat;lon;timestamp;pressure;altitude;pressure_sealevel;temperature;humidity
75513;BME280;64090;49.770;18.760;2024-01-07T00:02:09;96862.64;;;-1.00;100.00
75513;BME280;64090;49.770;18.760;2024-01-07T00:05:12;96862.38;;;-1.02;100.00
75513;BME280;64090;49.770;18.760;2024-01-07T00:08:15;96864.08;;;-1.07;100.00
75513;BME280;64090;49.770;18.760;2024-01-07T00:11:18;96863.20;;;-1.11;100.00
75513;BME280;64090;49.770;18.760;2024-01-07T00:14:21;96867.93;;;-1.09;100.00
75513;BME280;64090;49.770;18.760;2024-01-07T00:17:24;96865.27;;;-1.08;100.00
75513;BME280;64090;49.770;18.760;2024-01-07T00:20:27;96869.27;;;-1.08;100.00
75513;BME280;64090;49.770;18.760;2024-01-07T00:23:30;96867.08;;;-1.10;100.00
75513;BME280;64090;49.770;18.760;2024-01-07T00:26:33;96869.00;;;-1.11;100.00
75513;BME280;64090;49.770;18.760;2024-01-07T00:29:36;96870.35;;;-1.14;100.00
75513;BME280;64090;49.770;18.760;2024-01-07T00:32:39;96882.29;;;-1.17;100.00
75513;BME280;64090;49.770;18.760;2024-01-07T00:35:41;96879.60;;;-1.20;100.00
75513;BME280;64090;49.770;18.760;2024-01-07T00:38:45;96882.77;;;-1.23;100.00
75513;BME280;64090;49.770;18.760;2024-01-07T00:41:48;96882.90;;;-1.28;100.00
75513;BME280;64090;49.770;18.760;2024-01-07T00:44:51;96885.02;;;-1.30;100.00
75513;BME280;64090;49.770;18.760;2024-01-07T00:47:53;96879.39;;;-1.37;100.00
75513;BME280;64090;49.770;18.760;2024-01-07T00:50:58;96880.44;;;-1.40;100.00
75513;BME280;64090;49.770;18.760;2024-01-07T00:54:00;96889.52;;;-1.45;100.00
75513;BME280;64090;49.770;18.760;2024-01-07T00:57:03;96889.18;;;-1.46;100.00
75513;BME280;64090;49.770;18.760;2024-01-07T01:00:07;96886.82;;;-1.49;100.00
75513;BME280;64090;49.770;18.760;2024-01-07T01:03:10;96889.22;;;-1.50;100.00
75513;BME280;64090;49.770;18.760;2024-01-07T01:06:13;96888.43;;;-1.55;100.00
75513;BME280;64090;49.770;18.760;2024-01-07T01:09:16;96893.03;;;-1.57;100.00
75513;BME280;64090;49.770;18.760;2024-01-07T01:12:19;96898.07;;;-1.59;100.00
75513;BME280;64090;49.770;18.760;2024-01-07T01:15:22;96898.52;;;-1.62;100.00
75513;BME280;64090;49.770;18.760;2024-01-07T01:18:25;96904.29;;;-1.66;100.00
75513;BME280;64090;49.770;18.760;2024-01-07T01:21:28;96908.86;;;-1.68;100.00
75513;BME280;64090;49.770;18.760;2024-01-07T01:24:30;96913.35;;;-1.73;100.00
75513;BME280;64090;49.770;18.760;2024-01-07T01:27:33;96907.38;;;-1.76;100.00
75513;BME280;64090;49.770;18.760;2024-01-07T01:30:36;96912.96;;;-1.80;100.00
75513;BME280;64090;49.770;18.760;2024-01-07T01:33:40;96913.88;;;-1.82;100.00
75513;BME280;64090;49.770;18.760;2024-01-07T01:36:43;96912.13;;;-1.86;100.00
75513;BME280;64090;49.770;18.760;2024-01-07T01:39:46;96914.94;;;-1.88;100.00
75513;BME280;64090;49.770;18.760;2024-01-07T01:42:50;96915.38;;;-1.92;100.00
75513;BME280;64090;49.770;18.760;2024-01-07T01:45:54;96913.52;;;-1.95;100.00
75513;BME280;64090;49.770;18.760;2024-01-07T01:48:58;96914.67;;;-2.00;100.00
75513;BME280;64090;49.770;18.760;2024-01-07T01:52:01;96917.48;;;-2.02;100.00
75513;BME280;64090;49.770;18.760;2024-01-07T01:55:05;96920.88;;;-2.05;100.00
75513;BME280;64090;49.770;18.760;2024-01-07T01:58:09;96912.64;;;-2.06;100.00
75513;BME280;64090;49.770;18.760;2024-01-07T02:01:12;96910.80;;;-2.06;100.00
75513;BME280;64090;49.770;18.760;2024-01-07T02:04:15;96909.13;;;-2.11;100.00
75513;BME280;64090;49.770;18.760;2024-01-07T02:07:19;96919.08;;;-2.11;100.00
75513;BME280;64090;49.770;18.760;2024-01-07T02:10:22;96913.19;;;-2.11;100.00
75513;BME280;64090;49.770;18.760;2024-01-07T02:13:25;96917.52;;;-2.15;100.00
75513;BME280;64090;49.770;18.760;2024-01-07T02:16:28;96920.23;;;-2.16;100.00
75513;BME280;64090;49.770;18.760;2024-01-07T02:19:31;96922.19;;;-2.16;100.00
75513;BME280;64090;49.770;18.760;2024-01-07T02:22:34;96914.65;;;-2.18;100.00
75513;BME280;64090;49.770;18.760;2024-01-07T02:25:37;96911.83;;;-2.21;100.00
75513;BME280;64090;49.770;18.760;2024-01-07T02:28:40;96918.43;;;-2.23;100.00
75513;BME280;64090;49.770;18.760;2024-01-07T02:31:43;96917.45;;;-2.24;100.00
75513;BME280;64090;49.770;18.760;2024-01-07T02:34:45;96918.36;;;-2.24;100.00
75513;BME280;64090;49.770;18.760;2024-01-07T02:37:49;96914.77;;;-2.25;100.00
75513;BME280;64090;49.770;18.760;2024-01-07T02:40:52;96917.75;;;-2.26;100.00
75513;BME280;64090;49.770;18.760;2024-01-07T02:43:55;96918.19;;;-2.29;100.00
75513;BME280;64090;49.770;18.760;2024-01-07T02:46:58;96921.55;;;-2.32;100.00
75513;BME280;64090;49.770;18.760;2024-01-07T02:50:01;96926.18;;;-2.37;99.98
75513;BME280;64090;49.770;18.760;2024-01-07T02:53:04;96927.38;;;-2.43;100.00
75513;BME280;64090;49.770;18.760;2024-01-07T02:56:07;96931.51;;;-2.46;100.00
75513;BME280;64090;49.770;18.760;2024-01-07T02:59:11;96926.09;;;-2.49;99.98
75513;BME280;64090;49.770;18.760;2024-01-07T03:02:36;96927.23;;;-2.52;99.91
75513;BME280;64090;49.770;18.760;2024-01-07T03:05:54;96937.53;;;-2.53;99.86
75513;BME280;64090;49.770;18.760;2024-01-07T03:24:33;96934.45;;;-2.70;99.72
75513;BME280;64090;49.770;18.760;2024-01-07T03:27:48;96933.17;;;-2.75;99.75
75513;BME280;64090;49.770;18.760;2024-01-07T03:31:12;96934.52;;;-2.76;99.76
75513;BME280;64090;49.770;18.760;2024-01-07T03:34:38;96936.59;;;-2.80;99.73
75513;BME280;64090;49.770;18.760;2024-01-07T03:48:34;96941.69;;;-2.96;99.79
75513;BME280;64090;49.770;18.760;2024-01-07T03:51:51;96939.25;;;-2.96;99.51
75513;BME280;64090;49.770;18.760;2024-01-07T03:55:16;96939.94;;;-2.99;99.64
75513;BME280;64090;49.770;18.760;2024-01-07T03:58:56;96941.50;;;-3.01;99.59
75513;BME280;64090;49.770;18.760;2024-01-07T04:02:32;96939.35;;;-3.05;99.67
75513;BME280;64090;49.770;18.760;2024-01-07T04:05:38;96943.05;;;-3.07;99.60
75513;BME280;64090;49.770;18.760;2024-01-07T04:09:11;96956.21;;;-3.09;99.27
75513;BME280;64090;49.770;18.760;2024-01-07T04:20:07;96949.27;;;-3.26;99.09
75513;BME280;64090;49.770;18.760;2024-01-07T04:23:58;96951.77;;;-3.30;99.22
75513;BME280;64090;49.770;18.760;2024-01-07T04:27:38;96954.21;;;-3.31;99.25
75513;BME280;64090;49.770;18.760;2024-01-07T04:31:09;96964.20;;;-3.34;99.14
75513;BME280;64090;49.770;18.760;2024-01-07T04:42:04;96975.52;;;-3.44;99.01
75513;BME280;64090;49.770;18.760;2024-01-07T04:45:34;96977.69;;;-3.47;98.75
75513;BME280;64090;49.770;18.760;2024-01-07T04:52:50;96986.35;;;-3.53;98.97
75513;BME280;64090;49.770;18.760;2024-01-07T04:56:35;96988.50;;;-3.54;98.96
75513;BME280;64090;49.770;18.760;2024-01-07T05:00:06;96993.85;;;-3.54;98.82
75513;BME280;64090;49.770;18.760;2024-01-07T05:03:30;96995.29;;;-3.58;98.75
75513;BME280;64090;49.770;18.760;2024-01-07T05:07:31;96999.71;;;-3.61;98.77
75513;BME280;64090;49.770;18.760;2024-01-07T05:11:05;97006.48;;;-3.65;98.57
75513;BME280;64090;49.770;18.760;2024-01-07T05:14:46;97006.13;;;-3.69;98.49
75513;BME280;64090;49.770;18.760;2024-01-07T05:18:11;97014.15;;;-3.74;98.38
75513;BME280;64090;49.770;18.760;2024-01-07T05:21:47;97010.48;;;-3.78;98.39
75513;BME280;64090;49.770;18.760;2024-01-07T05:25:47;97024.19;;;-3.80;98.62
75513;BME280;64090;49.770;18.760;2024-01-07T05:33:11;97016.08;;;-3.90;98.39
75513;BME280;64090;49.770;18.760;2024-01-07T05:40:52;97027.79;;;-3.98;98.14
75513;BME280;64090;49.770;18.760;2024-01-07T05:44:17;97033.36;;;-4.00;97.89
75513;BME280;64090;49.770;18.760;2024-01-07T05:51:47;97032.35;;;-4.06;97.87
75513;BME280;64090;49.770;18.760;2024-01-07T06:03:13;97047.29;;;-4.13;97.82
75513;BME280;64090;49.770;18.760;2024-01-07T06:06:30;97044.83;;;-4.15;97.81
75513;BME280;64090;49.770;18.760;2024-01-07T06:10:20;97049.77;;;-4.16;97.72
75513;BME280;64090;49.770;18.760;2024-01-07T06:17:30;97063.25;;;-4.22;97.33
75513;BME280;64090;49.770;18.760;2024-01-07T06:32:35;97068.83;;;-4.33;97.58
75513;BME280;64090;49.770;18.760;2024-01-07T06:36:28;97078.36;;;-4.33;97.54
75513;BME280;64090;49.770;18.760;2024-01-07T06:47:09;97081.02;;;-4.40;97.45
75513;BME280;64090;49.770;18.760;2024-01-07T06:51:03;97083.94;;;-4.42;97.37
75513;BME280;64090;49.770;18.760;2024-01-07T06:58:03;97094.38;;;-4.43;97.39
75513;BME280;64090;49.770;18.760;2024-01-07T07:09:36;97113.89;;;-4.38;97.12
75513;BME280;64090;49.770;18.760;2024-01-07T07:17:41;97120.05;;;-4.35;97.01
75513;BME280;64090;49.770;18.760;2024-01-07T07:52:29;97150.31;;;-4.02;95.38
75513;BME280;64090;49.770;18.760;2024-01-07T07:56:11;97152.91;;;-3.98;95.42
75513;BME280;64090;49.770;18.760;2024-01-07T08:03:26;97159.64;;;-3.85;94.87
75513;BME280;64090;49.770;18.760;2024-01-07T08:06:55;97154.91;;;-3.79;94.67
75513;BME280;64090;49.770;18.760;2024-01-07T08:13:53;97168.61;;;-3.71;93.38
75513;BME280;64090;49.770;18.760;2024-01-07T08:17:24;97173.37;;;-3.72;93.15
75513;BME280;64090;49.770;18.760;2024-01-07T08:21:16;97176.55;;;-3.70;93.59
75513;BME280;64090;49.770;18.760;2024-01-07T08:25:18;97176.38;;;-3.66;93.44
75513;BME280;64090;49.770;18.760;2024-01-07T08:29:04;97175.23;;;-3.63;93.13
75513;BME280;64090;49.770;18.760;2024-01-07T08:32:53;97174.33;;;-3.56;93.06
75513;BME280;64090;49.770;18.760;2024-01-07T08:44:23;97187.98;;;-3.56;91.97
75513;BME280;64090;49.770;18.760;2024-01-07T08:48:12;97194.26;;;-3.53;91.74
75513;BME280;64090;49.770;18.760;2024-01-07T08:59:21;97198.38;;;-3.40;91.54
75513;BME280;64090;49.770;18.760;2024-01-07T09:02:44;97204.95;;;-3.30;90.77
75513;BME280;64090;49.770;18.760;2024-01-07T09:09:56;97213.38;;;-3.21;90.39
75513;BME280;64090;49.770;18.760;2024-01-07T09:21:25;97212.57;;;-3.15;88.47
75513;BME280;64090;49.770;18.760;2024-01-07T09:36:34;97215.25;;;-3.07;87.73
75513;BME280;64090;49.770;18.760;2024-01-07T09:40:21;97216.34;;;-2.97;87.95
75513;BME280;64090;49.770;18.760;2024-01-07T09:47:41;97214.23;;;-2.96;86.87
75513;BME280;64090;49.770;18.760;2024-01-07T09:51:32;97215.29;;;-2.91;86.09
75513;BME280;64090;49.770;18.760;2024-01-07T09:55:52;97218.85;;;-2.86;85.50
75513;BME280;64090;49.770;18.760;2024-01-07T10:06:23;97222.79;;;-2.68;84.12
75513;BME280;64090;49.770;18.760;2024-01-07T10:09:51;97224.64;;;-2.71;84.61
75513;BME280;64090;49.770;18.760;2024-01-07T10:13:12;97217.98;;;-2.62;84.59
75513;BME280;64090;49.770;18.760;2024-01-07T10:19:39;97218.79;;;-2.48;83.14
75513;BME280;64090;49.770;18.760;2024-01-07T10:23:05;97224.27;;;-2.49;83.72
75513;BME280;64090;49.770;18.760;2024-01-07T10:26:13;97212.98;;;-2.41;84.09
75513;BME280;64090;49.770;18.760;2024-01-07T10:29:35;97217.40;;;-2.30;83.60
75513;BME280;64090;49.770;18.760;2024-01-07T10:36:09;97216.68;;;-2.24;82.24
75513;BME280;64090;49.770;18.760;2024-01-07T10:43:20;97221.02;;;-2.32;82.48
75513;BME280;64090;49.770;18.760;2024-01-07T10:46:35;97215.91;;;-2.29;82.89
75513;BME280;64090;49.770;18.760;2024-01-07T10:49:55;97214.57;;;-2.28;82.88
75513;BME280;64090;49.770;18.760;2024-01-07T10:53:41;97225.02;;;-2.36;82.97
75513;BME280;64090;49.770;18.760;2024-01-07T11:01:02;97223.98;;;-2.38;82.48
75513;BME280;64090;49.770;18.760;2024-01-07T11:13:31;97218.66;;;-2.36;82.48
75513;BME280;64090;49.770;18.760;2024-01-07T11:16:01;97223.69;;;-2.43;82.62
75513;BME280;64090;49.770;18.760;2024-01-07T11:19:35;97223.23;;;-2.39;82.64
75513;BME280;64090;49.770;18.760;2024-01-07T11:30:44;97228.73;;;-2.54;81.92
75513;BME280;64090;49.770;18.760;2024-01-07T11:56:24;97237.77;;;-2.29;80.04
75513;BME280;64090;49.770;18.760;2024-01-07T12:00:18;97238.20;;;-2.38;80.19
75513;BME280;64090;49.770;18.760;2024-01-07T12:07:31;97239.45;;;-2.60;80.89
75513;BME280;64090;49.770;18.760;2024-01-07T12:11:06;97245.33;;;-2.62;80.97
75513;BME280;64090;49.770;18.760;2024-01-07T12:18:24;97239.61;;;-2.84;81.34
75513;BME280;64090;49.770;18.760;2024-01-07T12:25:45;97242.52;;;-2.89;81.89
75513;BME280;64090;49.770;18.760;2024-01-07T12:29:28;97247.14;;;-2.92;81.44
75513;BME280;64090;49.770;18.760;2024-01-07T12:32:48;97242.58;;;-3.14;81.04
75513;BME280;64090;49.770;18.760;2024-01-07T12:36:29;97243.98;;;-3.35;81.53
75513;BME280;64090;49.770;18.760;2024-01-07T12:43:41;97251.52;;;-3.48;82.28
75513;BME280;64090;49.770;18.760;2024-01-07T12:47:14;97254.11;;;-3.52;82.44
75513;BME280;64090;49.770;18.760;2024-01-07T12:58:29;97268.70;;;-3.63;83.07
75513;BME280;64090;49.770;18.760;2024-01-07T13:13:15;97273.31;;;-3.79;83.71
75513;BME280;64090;49.770;18.760;2024-01-07T13:16:42;97279.84;;;-3.82;84.22
75513;BME280;64090;49.770;18.760;2024-01-07T13:27:55;97290.44;;;-4.06;85.36
75513;BME280;64090;49.770;18.760;2024-01-07T13:38:42;97297.52;;;-4.29;85.65
75513;BME280;64090;49.770;18.760;2024-01-07T13:49:59;97298.10;;;-4.54;86.12
75513;BME280;64090;49.770;18.760;2024-01-07T13:53:06;97303.86;;;-4.59;86.51
75513;BME280;64090;49.770;18.760;2024-01-07T14:00:00;97315.48;;;-4.68;86.96
75513;BME280;64090;49.770;18.760;2024-01-07T14:03:21;97321.28;;;-4.72;86.81
75513;BME280;64090;49.770;18.760;2024-01-07T14:06:33;97320.67;;;-4.75;87.14
75513;BME280;64090;49.770;18.760;2024-01-07T14:09:52;97322.84;;;-4.78;87.37
75513;BME280;64090;49.770;18.760;2024-01-07T14:13:15;97332.20;;;-4.83;87.97
75513;BME280;64090;49.770;18.760;2024-01-07T14:16:46;97329.38;;;-4.87;87.86
75513;BME280;64090;49.770;18.760;2024-01-07T14:20:31;97331.75;;;-4.86;88.02
75513;BME280;64090;49.770;18.760;2024-01-07T14:24:14;97340.32;;;-4.88;87.20
75513;BME280;64090;49.770;18.760;2024-01-07T14:27:40;97345.87;;;-4.95;87.44
75513;BME280;64090;49.770;18.760;2024-01-07T14:35:17;97346.77;;;-5.09;87.83
75513;BME280;64090;49.770;18.760;2024-01-07T14:38:35;97350.32;;;-5.10;88.41
75513;BME280;64090;49.770;18.760;2024-01-07T14:42:11;97355.38;;;-5.13;88.58
75513;BME280;64090;49.770;18.760;2024-01-07T14:45:38;97359.58;;;-5.11;88.78
75513;BME280;64090;49.770;18.760;2024-01-07T14:49:09;97357.69;;;-5.18;89.05
75513;BME280;64090;49.770;18.760;2024-01-07T15:07:33;97373.67;;;-5.33;88.89
75513;BME280;64090;49.770;18.760;2024-01-07T15:10:52;97375.15;;;-5.34;89.00
75513;BME280;64090;49.770;18.760;2024-01-07T15:14:46;97378.87;;;-5.36;89.36
75513;BME280;64090;49.770;18.760;2024-01-07T15:18:37;97373.13;;;-5.40;89.38
75513;BME280;64090;49.770;18.760;2024-01-07T15:22:01;97381.71;;;-5.37;89.61
75513;BME280;64090;49.770;18.760;2024-01-07T15:25:09;97386.67;;;-5.41;89.72
75513;BME280;64090;49.770;18.760;2024-01-07T15:28:24;97389.66;;;-5.41;89.70
75513;BME280;64090;49.770;18.760;2024-01-07T15:31:31;97393.16;;;-5.42;89.67
75513;BME280;64090;49.770;18.760;2024-01-07T15:34:37;97397.12;;;-5.47;89.90
75513;BME280;64090;49.770;18.760;2024-01-07T15:37:49;97398.88;;;-5.47;89.86
75513;BME280;64090;49.770;18.760;2024-01-07T15:41:25;97409.71;;;-5.51;89.88
75513;BME280;64090;49.770;18.760;2024-01-07T15:44:31;97412.86;;;-5.54;89.44
75513;BME280;64090;49.770;18.760;2024-01-07T15:47:38;97417.64;;;-5.58;89.32
75513;BME280;64090;49.770;18.760;2024-01-07T15:50:49;97418.64;;;-5.60;89.02
75513;BME280;64090;49.770;18.760;2024-01-07T15:53:52;97420.65;;;-5.62;89.03
75513;BME280;64090;49.770;18.760;2024-01-07T15:56:55;97421.45;;;-5.65;89.05
75513;BME280;64090;49.770;18.760;2024-01-07T15:59:59;97416.04;;;-5.67;89.01
75513;BME280;64090;49.770;18.760;2024-01-07T16:03:05;97420.20;;;-5.67;89.01
75513;BME280;64090;49.770;18.760;2024-01-07T16:06:12;97426.73;;;-5.67;89.53
75513;BME280;64090;49.770;18.760;2024-01-07T16:09:17;97426.73;;;-5.65;89.66
75513;BME280;64090;49.770;18.760;2024-01-07T16:12:20;97427.34;;;-5.63;89.58
75513;BME280;64090;49.770;18.760;2024-01-07T16:15:26;97439.58;;;-5.68;89.48
75513;BME280;64090;49.770;18.760;2024-01-07T16:18:30;97440.67;;;-5.74;89.19
75513;BME280;64090;49.770;18.760;2024-01-07T16:21:33;97437.73;;;-5.76;88.78
75513;BME280;64090;49.770;18.760;2024-01-07T16:24:39;97450.38;;;-5.77;88.68
75513;BME280;64090;49.770;18.760;2024-01-07T16:27:43;97445.49;;;-5.83;88.45
75513;BME280;64090;49.770;18.760;2024-01-07T16:30:46;97453.16;;;-5.84;88.48
75513;BME280;64090;49.770;18.760;2024-01-07T16:34:16;97459.05;;;-5.84;88.10
75513;BME280;64090;49.770;18.760;2024-01-07T16:37:27;97454.98;;;-5.91;88.51
75513;BME280;64090;49.770;18.760;2024-01-07T16:40:31;97456.85;;;-5.90;88.25
75513;BME280;64090;49.770;18.760;2024-01-07T16:43:35;97457.79;;;-5.91;88.58
75513;BME280;64090;49.770;18.760;2024-01-07T16:46:38;97466.60;;;-5.93;88.40
75513;BME280;64090;49.770;18.760;2024-01-07T16:49:42;97466.13;;;-5.96;88.68
75513;BME280;64090;49.770;18.760;2024-01-07T16:52:51;97466.61;;;-5.98;88.41
75513;BME280;64090;49.770;18.760;2024-01-07T16:55:57;97470.14;;;-5.99;88.41
75513;BME280;64090;49.770;18.760;2024-01-07T16:59:05;97465.56;;;-6.03;88.77
75513;BME280;64090;49.770;18.760;2024-01-07T17:02:23;97470.39;;;-6.02;88.83
75513;BME280;64090;49.770;18.760;2024-01-07T17:05:39;97478.42;;;-6.02;88.61
75513;BME280;64090;49.770;18.760;2024-01-07T17:12:32;97478.37;;;-6.08;89.37
75513;BME280;64090;49.770;18.760;2024-01-07T17:15:52;97486.62;;;-6.05;89.26
75513;BME280;64090;49.770;18.760;2024-01-07T17:18:58;97496.17;;;-6.06;89.67
75513;BME280;64090;49.770;18.760;2024-01-07T17:22:02;97493.60;;;-6.06;89.50
75513;BME280;64090;49.770;18.760;2024-01-07T17:25:08;97496.83;;;-6.08;89.48
75513;BME280;64090;49.770;18.760;2024-01-07T17:28:44;97507.06;;;-6.07;89.48
75513;BME280;64090;49.770;18.760;2024-01-07T17:31:50;97503.20;;;-6.11;89.75
75513;BME280;64090;49.770;18.760;2024-01-07T17:35:04;97515.63;;;-6.11;89.90
75513;BME280;64090;49.770;18.760;2024-01-07T17:38:37;97516.00;;;-6.16;89.56
75513;BME280;64090;49.770;18.760;2024-01-07T17:42:15;97516.00;;;-6.22;89.04
75513;BME280;64090;49.770;18.760;2024-01-07T17:45:21;97519.45;;;-6.26;89.19
75513;BME280;64090;49.770;18.760;2024-01-07T17:48:32;97519.34;;;-6.30;89.32
75513;BME280;64090;49.770;18.760;2024-01-07T17:51:41;97524.42;;;-6.31;89.26
75513;BME280;64090;49.770;18.760;2024-01-07T17:54:58;97528.31;;;-6.33;89.18
75513;BME280;64090;49.770;18.760;2024-01-07T17:58:01;97531.55;;;-6.29;89.20
75513;BME280;64090;49.770;18.760;2024-01-07T18:01:18;97532.66;;;-6.33;88.62
75513;BME280;64090;49.770;18.760;2024-01-07T18:04:30;97537.21;;;-6.36;88.70
75513;BME280;64090;49.770;18.760;2024-01-07T18:07:34;97543.13;;;-6.37;88.70
75513;BME280;64090;49.770;18.760;2024-01-07T18:10:41;97549.92;;;-6.41;88.64
75513;BME280;64090;49.770;18.760;2024-01-07T18:13:46;97552.01;;;-6.41;88.77
75513;BME280;64090;49.770;18.760;2024-01-07T18:16:50;97547.89;;;-6.41;89.33
75513;BME280;64090;49.770;18.760;2024-01-07T18:20:03;97549.98;;;-6.42;89.54
75513;BME280;64090;49.770;18.760;2024-01-07T18:23:14;97555.48;;;-6.41;89.52
75513;BME280;64090;49.770;18.760;2024-01-07T18:26:18;97562.27;;;-6.40;89.75
75513;BME280;64090;49.770;18.760;2024-01-07T18:29:37;97571.07;;;-6.43;89.38
75513;BME280;64090;49.770;18.760;2024-01-07T18:32:41;97577.20;;;-6.47;89.05
75513;BME280;64090;49.770;18.760;2024-01-07T18:35:45;97574.11;;;-6.47;88.80
75513;BME280;64090;49.770;18.760;2024-01-07T18:38:53;97577.42;;;-6.55;88.49
75513;BME280;64090;49.770;18.760;2024-01-07T18:41:56;97577.23;;;-6.58;88.81
75513;BME280;64090;49.770;18.760;2024-01-07T18:44:59;97587.67;;;-6.59;88.97
75513;BME280;64090;49.770;18.760;2024-01-07T18:48:03;97594.67;;;-6.63;88.91
75513;BME280;64090;49.770;18.760;2024-01-07T18:51:08;97594.55;;;-6.67;89.09
75513;BME280;64090;49.770;18.760;2024-01-07T18:54:11;97595.76;;;-6.64;88.97
75513;BME280;64090;49.770;18.760;2024-01-07T18:57:21;97604.55;;;-6.69;88.93
75513;BME280;64090;49.770;18.760;2024-01-07T19:00:25;97600.94;;;-6.75;89.28
75513;BME280;64090;49.770;18.760;2024-01-07T19:03:31;97603.61;;;-6.76;89.35
75513;BME280;64090;49.770;18.760;2024-01-07T19:06:34;97603.48;;;-6.77;89.21
75513;BME280;64090;49.770;18.760;2024-01-07T19:09:37;97600.61;;;-6.80;89.41
75513;BME280;64090;49.770;18.760;2024-01-07T19:12:42;97611.58;;;-6.82;89.66
75513;BME280;64090;49.770;18.760;2024-01-07T19:15:45;97614.86;;;-6.82;89.73
75513;BME280;64090;49.770;18.760;2024-01-07T19:18:48;97620.89;;;-6.80;89.74
75513;BME280;64090;49.770;18.760;2024-01-07T19:21:52;97623.13;;;-6.82;89.24
75513;BME280;64090;49.770;18.760;2024-01-07T19:24:57;97624.80;;;-6.86;89.20
75513;BME280;64090;49.770;18.760;2024-01-07T19:28:04;97633.17;;;-6.90;88.91
75513;BME280;64090;49.770;18.760;2024-01-07T19:31:11;97627.15;;;-6.93;89.31
75513;BME280;64090;49.770;18.760;2024-01-07T19:34:14;97630.47;;;-6.94;89.19
75513;BME280;64090;49.770;18.760;2024-01-07T19:40:53;97637.27;;;-6.98;89.35
75513;BME280;64090;49.770;18.760;2024-01-07T19:43:56;97640.49;;;-6.98;89.52
75513;BME280;64090;49.770;18.760;2024-01-07T19:47:03;97640.34;;;-6.98;89.46
75513;BME280;64090;49.770;18.760;2024-01-07T19:50:07;97641.43;;;-6.99;89.78
75513;BME280;64090;49.770;18.760;2024-01-07T19:53:16;97650.75;;;-6.97;89.81
75513;BME280;64090;49.770;18.760;2024-01-07T19:56:33;97655.64;;;-6.94;90.18
75513;BME280;64090;49.770;18.760;2024-01-07T19:59:36;97658.36;;;-6.94;90.23
75513;BME280;64090;49.770;18.760;2024-01-07T20:02:46;97658.34;;;-6.94;90.30
75513;BME280;64090;49.770;18.760;2024-01-07T20:06:02;97664.38;;;-6.86;89.84
75513;BME280;64090;49.770;18.760;2024-01-07T20:09:08;97673.28;;;-6.88;89.28
75513;BME280;64090;49.770;18.760;2024-01-07T20:15:38;97670.94;;;-6.97;89.53
75513;BME280;64090;49.770;18.760;2024-01-07T20:18:46;97668.47;;;-6.99;89.57
75513;BME280;64090;49.770;18.760;2024-01-07T20:21:57;97677.73;;;-7.04;90.07
75513;BME280;64090;49.770;18.760;2024-01-07T20:25:01;97677.00;;;-7.06;90.03
75513;BME280;64090;49.770;18.760;2024-01-07T20:28:10;97676.73;;;-7.07;90.49
75513;BME280;64090;49.770;18.760;2024-01-07T20:31:16;97683.75;;;-7.06;90.34
75513;BME280;64090;49.770;18.760;2024-01-07T20:34:19;97683.95;;;-7.09;90.36
75513;BME280;64090;49.770;18.760;2024-01-07T20:37:23;97688.55;;;-7.11;90.46
75513;BME280;64090;49.770;18.760;2024-01-07T20:40:29;97693.29;;;-7.13;90.36
75513;BME280;64090;49.770;18.760;2024-01-07T20:43:32;97694.98;;;-7.15;90.33
75513;BME280;64090;49.770;18.760;2024-01-07T20:46:35;97703.60;;;-7.12;90.42
75513;BME280;64090;49.770;18.760;2024-01-07T20:49:39;97704.36;;;-7.11;89.84
75513;BME280;64090;49.770;18.760;2024-01-07T20:52:43;97700.13;;;-7.15;89.87
75513;BME280;64090;49.770;18.760;2024-01-07T20:55:49;97705.16;;;-7.18;89.98
75513;BME280;64090;49.770;18.760;2024-01-07T20:58:55;97711.38;;;-7.22;90.00
75513;BME280;64090;49.770;18.760;2024-01-07T21:01:58;97717.77;;;-7.22;90.19
75513;BME280;64090;49.770;18.760;2024-01-07T21:05:01;97716.42;;;-7.25;90.12
75513;BME280;64090;49.770;18.760;2024-01-07T21:08:06;97722.40;;;-7.24;90.28
75513;BME280;64090;49.770;18.760;2024-01-07T21:11:16;97723.84;;;-7.25;89.97
75513;BME280;64090;49.770;18.760;2024-01-07T21:14:19;97726.83;;;-7.23;89.57
75513;BME280;64090;49.770;18.760;2024-01-07T21:17:23;97729.17;;;-7.31;89.77
75513;BME280;64090;49.770;18.760;2024-01-07T21:20:30;97730.93;;;-7.31;89.74
75513;BME280;64090;49.770;18.760;2024-01-07T21:23:47;97729.33;;;-7.33;89.58
75513;BME280;64090;49.770;18.760;2024-01-07T21:26:51;97738.98;;;-7.36;89.36
75513;BME280;64090;49.770;18.760;2024-01-07T21:29:55;97743.20;;;-7.38;88.94
75513;BME280;64090;49.770;18.760;2024-01-07T21:32:58;97733.95;;;-7.42;88.76
75513;BME280;64090;49.770;18.760;2024-01-07T21:36:04;97726.30;;;-7.43;88.95
75513;BME280;64090;49.770;18.760;2024-01-07T21:39:08;97731.31;;;-7.43;89.19
75513;BME280;64090;49.770;18.760;2024-01-07T21:42:11;97732.58;;;-7.45;89.25
75513;BME280;64090;49.770;18.760;2024-01-07T21:45:14;97734.46;;;-7.41;89.23
75513;BME280;64090;49.770;18.760;2024-01-07T21:48:17;97735.83;;;-7.38;89.14
75513;BME280;64090;49.770;18.760;2024-01-07T21:51:21;97735.44;;;-7.43;89.19
75513;BME280;64090;49.770;18.760;2024-01-07T21:54:24;97739.80;;;-7.44;89.40
75513;BME280;64090;49.770;18.760;2024-01-07T21:57:49;97740.48;;;-7.44;89.52
75513;BME280;64090;49.770;18.760;2024-01-07T22:00:51;97744.23;;;-7.46;89.37
75513;BME280;64090;49.770;18.760;2024-01-07T22:03:57;97752.64;;;-7.46;89.56
75513;BME280;64090;49.770;18.760;2024-01-07T22:07:01;97754.66;;;-7.43;89.25
75513;BME280;64090;49.770;18.760;2024-01-07T22:10:05;97755.05;;;-7.46;89.25
75513;BME280;64090;49.770;18.760;2024-01-07T22:13:11;97749.52;;;-7.46;89.18
75513;BME280;64090;49.770;18.760;2024-01-07T22:16:14;97755.46;;;-7.47;89.21
75513;BME280;64090;49.770;18.760;2024-01-07T22:19:17;97756.64;;;-7.50;89.13
75513;BME280;64090;49.770;18.760;2024-01-07T22:22:20;97758.38;;;-7.50;89.18
75513;BME280;64090;49.770;18.760;2024-01-07T22:25:23;97764.05;;;-7.50;89.50
75513;BME280;64090;49.770;18.760;2024-01-07T22:28:28;97762.89;;;-7.51;89.33
75513;BME280;64090;49.770;18.760;2024-01-07T22:31:52;97765.21;;;-7.49;89.42
75513;BME280;64090;49.770;18.760;2024-01-07T22:34:58;97765.52;;;-7.54;89.91